createdAt,value
2018-05-10T00:00:28.991Z,0.00
2018-05-10T00:01:28.920Z,0.00
2018-05-10T00:02:28.931Z,0.00
2018-05-10T00:03:28.779Z,0.00
2018-05-10T00:04:28.713Z,0.00
2018-05-10T00:05:28.630Z,0.00
2018-05-10T00:06:28.571Z,0.00
2018-05-10T00:07:28.499Z,0.00
2018-05-10T00:08:28.430Z,0.00
2018-05-10T00:09:28.359Z,0.00
2018-05-10T00:10:28.286Z,0.00
2018-05-10T00:11:28.218Z,0.00
2018-05-10T00:12:28.152Z,0.00
2018-05-10T00:13:28.074Z,0.00
2018-05-10T00:14:28.017Z,0.00
2018-05-10T00:15:27.940Z,0.00
2018-05-10T00:16:27.869Z,0.00
2018-05-10T00:17:27.802Z,0.00
2018-05-10T00:18:27.728Z,0.00
2018-05-10T00:19:27.662Z,0.00
2018-05-10T00:20:27.590Z,0.00
2018-05-10T00:21:27.541Z,0.00
2018-05-10T00:22:27.449Z,0.00
2018-05-10T00:23:27.383Z,0.00
2018-05-10T00:24:27.383Z,0.00
2018-05-10T00:25:27.244Z,0.00
2018-05-10T00:26:27.170Z,0.00
2018-05-10T00:27:27.103Z,0.00
2018-05-10T00:28:27.032Z,0.00
2018-05-10T00:29:26.962Z,0.00
2018-05-10T00:30:26.913Z,0.00
2018-05-10T00:31:26.826Z,0.00
2018-05-10T00:32:26.757Z,0.00
2018-05-10T00:33:26.684Z,0.00
2018-05-10T00:34:26.616Z,0.00
2018-05-10T00:35:26.562Z,0.00
2018-05-10T00:36:26.475Z,0.00
2018-05-10T00:37:26.430Z,0.00
2018-05-10T00:38:26.349Z,0.00
2018-05-10T00:39:26.269Z,0.00
2018-05-10T00:40:26.197Z,0.00
2018-05-10T00:41:26.129Z,0.00
2018-05-10T00:42:26.052Z,0.00
2018-05-10T00:43:25.991Z,0.00
2018-05-10T00:44:25.917Z,0.00
2018-05-10T00:45:25.848Z,0.00
2018-05-10T00:46:25.790Z,0.00
2018-05-10T00:47:25.707Z,0.00
2018-05-10T00:48:25.645Z,0.00
2018-05-10T00:49:25.576Z,0.00
2018-05-10T00:50:25.500Z,0.00
2018-05-10T00:51:25.434Z,0.00
2018-05-10T00:52:25.362Z,0.00
2018-05-10T00:53:25.289Z,0.00
2018-05-10T00:54:25.225Z,0.00
2018-05-10T00:55:25.157Z,0.00
2018-05-10T00:56:25.119Z,0.00
2018-05-10T00:57:25.014Z,0.00
2018-05-10T00:58:24.935Z,0.00
2018-05-10T00:59:24.874Z,0.00
2018-05-10T01:00:24.801Z,0.00
2018-05-10T01:01:24.730Z,0.00
2018-05-10T01:02:24.666Z,0.00
2018-05-10T01:03:24.594Z,0.00
2018-05-10T01:04:24.518Z,0.00
2018-05-10T01:05:24.449Z,0.00
2018-05-10T01:06:24.385Z,0.00
2018-05-10T01:07:24.313Z,0.00
2018-05-10T01:08:24.239Z,0.00
2018-05-10T01:09:24.171Z,0.00
2018-05-10T01:10:24.098Z,0.00
2018-05-10T01:11:24.031Z,0.00
2018-05-10T01:12:23.956Z,0.00
2018-05-10T01:13:23.910Z,0.00
2018-05-10T01:14:23.823Z,0.00
2018-05-10T01:15:23.752Z,0.00
2018-05-10T01:16:23.681Z,0.00
2018-05-10T01:17:23.614Z,0.00
2018-05-10T01:18:23.552Z,0.00
2018-05-10T01:19:23.471Z,0.00
2018-05-10T01:20:23.400Z,0.00
2018-05-10T01:21:23.336Z,0.00
2018-05-10T01:22:23.262Z,0.00
2018-05-10T01:23:23.193Z,0.00
2018-05-10T01:24:23.118Z,0.00
2018-05-10T01:25:23.068Z,0.00
2018-05-10T01:26:22.991Z,0.00
2018-05-10T01:27:22.912Z,0.00
2018-05-10T01:28:22.838Z,0.00
2018-05-10T01:29:22.775Z,0.00
2018-05-10T01:30:22.703Z,0.00
2018-05-10T01:31:22.629Z,0.00
2018-05-10T01:32:22.559Z,0.00
2018-05-10T01:33:22.490Z,0.00
2018-05-10T01:34:22.419Z,0.00
2018-05-10T01:35:22.347Z,0.00
2018-05-10T01:36:22.282Z,0.00
2018-05-10T01:37:22.207Z,0.00
2018-05-10T01:38:22.142Z,0.00
2018-05-10T01:39:22.069Z,0.00
2018-05-10T01:40:21.999Z,0.00
2018-05-10T01:41:21.927Z,0.00
2018-05-10T01:42:21.857Z,0.00
2018-05-10T01:43:21.788Z,0.00
2018-05-10T01:44:21.713Z,0.00
2018-05-10T01:45:21.650Z,0.00
2018-05-10T01:46:21.577Z,0.00
2018-05-10T01:47:21.511Z,0.00
2018-05-10T01:48:21.436Z,0.00
2018-05-10T01:49:21.377Z,0.00
2018-05-10T01:50:21.295Z,0.00
2018-05-10T01:51:21.228Z,0.00
2018-05-10T01:52:21.172Z,0.00
2018-05-10T01:53:21.087Z,0.00
2018-05-10T01:54:21.017Z,0.00
2018-05-10T01:55:20.943Z,0.00
2018-05-10T01:56:20.866Z,0.00
2018-05-10T01:57:20.816Z,0.00
2018-05-10T01:58:20.734Z,0.00
2018-05-10T01:59:20.677Z,0.00
2018-05-10T02:00:20.592Z,0.00
2018-05-10T02:01:20.518Z,0.00
2018-05-10T02:02:20.462Z,0.00
2018-05-10T02:03:20.392Z,0.00
2018-05-10T02:04:20.315Z,0.00
2018-05-10T02:05:20.240Z,0.00
2018-05-10T02:06:20.170Z,0.00
2018-05-10T02:07:20.104Z,0.00
2018-05-10T02:08:20.033Z,0.00
2018-05-10T02:09:19.960Z,0.00
2018-05-10T02:10:19.889Z,0.00
2018-05-10T02:11:19.833Z,0.00
2018-05-10T02:12:19.745Z,0.00
2018-05-10T02:13:19.686Z,0.00
2018-05-10T02:14:19.607Z,0.00
2018-05-10T02:15:19.541Z,0.00
2018-05-10T02:16:19.471Z,0.00
2018-05-10T02:17:19.403Z,0.00
2018-05-10T02:18:19.325Z,0.00
2018-05-10T02:19:19.258Z,0.00
2018-05-10T02:20:19.183Z,0.00
2018-05-10T02:21:19.123Z,0.00
2018-05-10T02:22:19.044Z,0.00
2018-05-10T02:23:18.977Z,0.00
2018-05-10T02:24:18.909Z,0.00
2018-05-10T02:25:18.840Z,0.00
2018-05-10T02:26:18.763Z,0.00
2018-05-10T02:27:18.695Z,0.00
2018-05-10T02:28:18.633Z,0.00
2018-05-10T02:29:18.552Z,0.00
2018-05-10T02:30:18.481Z,0.00
2018-05-10T02:31:18.418Z,0.00
2018-05-10T02:32:18.340Z,0.00
2018-05-10T02:33:18.264Z,0.00
2018-05-10T02:34:18.200Z,0.00
2018-05-10T02:35:18.128Z,0.00
2018-05-10T02:36:18.107Z,0.00
2018-05-10T02:37:17.989Z,0.00
2018-05-10T02:38:17.918Z,0.00
2018-05-10T02:39:17.847Z,0.00
2018-05-10T02:40:17.775Z,0.00
2018-05-10T02:41:17.703Z,0.00
2018-05-10T02:42:17.635Z,0.00
2018-05-10T02:43:17.565Z,0.00
2018-05-10T02:44:17.503Z,0.00
2018-05-10T02:45:17.432Z,0.00
2018-05-10T02:46:17.363Z,0.00
2018-05-10T02:47:17.284Z,0.00
2018-05-10T02:48:17.214Z,0.00
2018-05-10T02:49:17.188Z,0.00
2018-05-10T02:50:17.072Z,0.00
2018-05-10T02:51:16.999Z,0.00
2018-05-10T02:52:16.932Z,0.00
2018-05-10T02:53:16.861Z,0.00
2018-05-10T02:54:16.788Z,0.00
2018-05-10T02:55:16.722Z,0.00
2018-05-10T02:56:16.643Z,0.00
2018-05-10T02:57:16.583Z,0.00
2018-05-10T02:58:16.506Z,0.00
2018-05-10T02:59:16.436Z,0.00
2018-05-10T03:00:16.371Z,0.00
2018-05-10T03:01:16.297Z,0.00
2018-05-10T03:02:16.230Z,0.00
2018-05-10T03:03:16.154Z,0.00
2018-05-10T03:04:16.086Z,0.00
2018-05-10T03:05:16.019Z,0.00
2018-05-10T03:06:15.936Z,0.00
2018-05-10T03:07:15.873Z,0.00
2018-05-10T03:08:15.798Z,0.00
2018-05-10T03:09:15.723Z,0.00
2018-05-10T03:10:15.660Z,0.00
2018-05-10T03:11:15.588Z,0.00
2018-05-10T03:12:15.523Z,0.00
2018-05-10T03:13:15.445Z,0.00
2018-05-10T03:14:15.380Z,0.00
2018-05-10T03:15:15.312Z,0.00
2018-05-10T03:16:15.231Z,0.00
2018-05-10T03:17:15.162Z,0.00
2018-05-10T03:18:15.091Z,0.00
2018-05-10T03:19:15.055Z,0.00
2018-05-10T03:20:14.949Z,0.00
2018-05-10T03:21:14.878Z,4.00
2018-05-10T03:22:14.812Z,4.00
2018-05-10T03:23:14.738Z,0.00
2018-05-10T03:24:14.668Z,4.00
2018-05-10T03:25:14.596Z,4.00
2018-05-10T03:26:14.524Z,4.00
2018-05-10T03:27:14.453Z,4.00
2018-05-10T03:28:14.391Z,8.00
2018-05-10T03:29:14.360Z,4.00
2018-05-10T03:30:14.248Z,8.00
2018-05-10T03:31:14.165Z,8.00
2018-05-10T03:32:14.100Z,8.00
2018-05-10T03:33:14.116Z,8.00
2018-05-10T03:34:13.963Z,16.00
2018-05-10T03:35:13.908Z,16.00
2018-05-10T03:36:13.814Z,16.00
2018-05-10T03:37:13.784Z,20.00
2018-05-10T03:38:13.676Z,24.00
2018-05-10T03:39:13.600Z,20.00
2018-05-10T03:40:13.530Z,24.00
2018-05-10T03:41:13.461Z,28.00
2018-05-10T03:42:13.389Z,32.00
2018-05-10T03:43:13.319Z,36.00
2018-05-10T03:44:13.245Z,40.00
2018-05-10T03:45:13.178Z,44.00
2018-05-10T03:46:13.104Z,48.00
2018-05-10T03:47:13.037Z,48.00
2018-05-10T03:48:12.965Z,56.00
2018-05-10T03:49:12.890Z,60.00
2018-05-10T03:50:12.824Z,64.00
2018-05-10T03:51:12.752Z,68.00
2018-05-10T03:52:12.677Z,72.00
2018-05-10T03:53:12.612Z,76.00
2018-05-10T03:54:12.537Z,84.00
2018-05-10T03:55:12.475Z,88.00
2018-05-10T03:56:12.397Z,100.00
2018-05-10T03:57:12.326Z,104.00
2018-05-10T03:58:12.254Z,108.00
2018-05-10T03:59:12.193Z,116.00
2018-05-10T04:00:12.111Z,120.00
2018-05-10T04:01:12.040Z,128.00
2018-05-10T04:02:11.970Z,132.00
2018-05-10T04:03:11.899Z,136.00
2018-05-10T04:04:11.851Z,144.00
2018-05-10T04:05:11.752Z,152.00
2018-05-10T04:06:11.687Z,160.00
2018-05-10T04:07:11.622Z,164.00
2018-05-10T04:08:11.541Z,172.00
2018-05-10T04:09:11.471Z,176.00
2018-05-10T04:10:11.393Z,184.00
2018-05-10T04:11:11.328Z,196.00
2018-05-10T04:12:11.257Z,200.00
2018-05-10T04:13:11.183Z,212.00
2018-05-10T04:14:11.119Z,216.00
2018-05-10T04:15:11.044Z,228.00
2018-05-10T04:16:11.035Z,236.00
2018-05-10T04:17:10.902Z,244.00
2018-05-10T04:18:10.827Z,244.00
2018-05-10T04:19:10.756Z,260.00
2018-05-10T04:20:10.690Z,276.00
2018-05-10T04:21:10.627Z,288.00
2018-05-10T04:22:10.545Z,300.00
2018-05-10T04:23:10.477Z,304.00
2018-05-10T04:24:10.404Z,324.00
2018-05-10T04:25:10.329Z,332.00
2018-05-10T04:26:10.265Z,348.00
2018-05-10T04:27:10.191Z,352.00
2018-05-10T04:28:10.136Z,368.00
2018-05-10T04:29:10.048Z,376.00
2018-05-10T04:30:09.986Z,392.00
2018-05-10T04:31:09.906Z,408.00
2018-05-10T04:32:09.839Z,416.00
2018-05-10T04:33:09.761Z,436.00
2018-05-10T04:34:09.692Z,432.00
2018-05-10T04:35:09.621Z,428.00
2018-05-10T04:36:09.557Z,436.00
2018-05-10T04:37:09.478Z,440.00
2018-05-10T04:38:09.403Z,444.00
2018-05-10T04:39:09.330Z,444.00
2018-05-10T04:40:09.266Z,448.00
2018-05-10T04:41:09.193Z,452.00
2018-05-10T04:42:09.175Z,464.00
2018-05-10T04:43:09.051Z,472.00
2018-05-10T04:44:08.979Z,480.00
2018-05-10T04:45:08.911Z,496.00
2018-05-10T04:46:08.838Z,504.00
2018-05-10T04:47:08.765Z,508.00
2018-05-10T04:48:08.686Z,532.00
2018-05-10T04:49:08.627Z,552.00
2018-05-10T04:50:08.549Z,552.00
2018-05-10T04:51:08.489Z,564.00
2018-05-10T04:52:08.403Z,572.00
2018-05-10T04:53:08.336Z,584.00
2018-05-10T04:54:08.265Z,604.00
2018-05-10T04:55:08.194Z,600.00
2018-05-10T04:56:08.138Z,616.00
2018-05-10T04:57:08.056Z,636.00
2018-05-10T04:58:07.984Z,664.00
2018-05-10T04:59:07.915Z,688.00
2018-05-10T05:00:07.832Z,716.00
2018-05-10T05:01:07.765Z,732.00
2018-05-10T05:02:07.695Z,764.00
2018-05-10T05:03:07.624Z,784.00
2018-05-10T05:04:07.547Z,808.00
2018-05-10T05:05:07.483Z,836.00
2018-05-10T05:06:07.411Z,872.00
2018-05-10T05:07:07.338Z,872.00
2018-05-10T05:08:07.263Z,912.00
2018-05-10T05:09:07.271Z,948.00
2018-05-10T05:10:07.122Z,988.00
2018-05-10T05:11:07.052Z,1044.00
2018-05-10T05:12:06.983Z,1088.00
2018-05-10T05:13:06.904Z,1108.00
2018-05-10T05:14:06.838Z,1140.00
2018-05-10T05:15:06.766Z,1176.00
2018-05-10T05:16:06.740Z,1196.00
2018-05-10T05:17:06.628Z,1172.00
2018-05-10T05:18:06.553Z,1128.00
2018-05-10T05:19:06.480Z,1100.00
2018-05-10T05:20:06.405Z,1060.00
2018-05-10T05:21:06.337Z,984.00
2018-05-10T05:22:06.262Z,932.00
2018-05-10T05:23:06.194Z,928.00
2018-05-10T05:24:06.120Z,904.00
2018-05-10T05:25:06.050Z,892.00
2018-05-10T05:26:05.983Z,852.00
2018-05-10T05:27:05.910Z,808.00
2018-05-10T05:28:05.835Z,816.00
2018-05-10T05:29:05.768Z,832.00
2018-05-10T05:30:05.698Z,852.00
2018-05-10T05:31:05.625Z,908.00
2018-05-10T05:32:05.549Z,944.00
2018-05-10T05:33:05.485Z,1004.00
2018-05-10T05:34:05.407Z,1036.00
2018-05-10T05:35:05.355Z,1028.00
2018-05-10T05:36:05.311Z,1036.00
2018-05-10T05:37:05.207Z,1008.00
2018-05-10T05:38:05.122Z,988.00
2018-05-10T05:39:05.052Z,976.00
2018-05-10T05:40:04.979Z,1036.00
2018-05-10T05:41:05.073Z,1136.00
2018-05-10T05:42:04.831Z,1176.00
2018-05-10T05:43:04.760Z,1184.00
2018-05-10T05:44:04.695Z,1148.00
2018-05-10T05:45:04.642Z,1052.00
2018-05-10T05:46:04.550Z,992.00
2018-05-10T05:47:04.497Z,988.00
2018-05-10T05:48:04.413Z,1024.00
2018-05-10T05:49:04.338Z,1060.00
2018-05-10T05:50:04.263Z,1044.00
2018-05-10T05:51:04.197Z,964.00
2018-05-10T05:52:04.117Z,908.00
2018-05-10T05:53:04.052Z,888.00
2018-05-10T05:54:03.985Z,884.00
2018-05-10T05:55:03.915Z,840.00
2018-05-10T05:56:03.839Z,816.00
2018-05-10T05:57:03.762Z,768.00
2018-05-10T05:58:03.698Z,724.00
2018-05-10T05:59:03.625Z,692.00
2018-05-10T06:00:03.552Z,680.00
2018-05-10T06:01:03.471Z,668.00
2018-05-10T06:02:03.403Z,660.00
2018-05-10T06:03:03.330Z,660.00
2018-05-10T06:04:03.257Z,680.00
2018-05-10T06:05:03.195Z,736.00
2018-05-10T06:06:03.130Z,804.00
2018-05-10T06:07:03.050Z,888.00
2018-05-10T06:08:02.977Z,972.00
2018-05-10T06:09:02.905Z,1084.00
2018-05-10T06:10:02.826Z,1164.00
2018-05-10T06:11:02.766Z,1244.00
2018-05-10T06:12:02.680Z,1320.00
2018-05-10T06:13:02.620Z,1424.00
2018-05-10T06:14:02.542Z,1540.00
2018-05-10T06:15:02.503Z,1668.00
2018-05-10T06:16:02.507Z,1812.00
2018-05-10T06:17:02.371Z,1848.00
2018-05-10T06:18:02.258Z,1888.00
2018-05-10T06:19:02.188Z,2000.00
2018-05-10T06:20:02.124Z,2048.00
2018-05-10T06:21:02.046Z,2004.00
2018-05-10T06:22:01.974Z,2036.00
2018-05-10T06:23:01.901Z,2036.00
2018-05-10T06:24:01.828Z,2024.00
2018-05-10T06:25:01.790Z,2020.00
2018-05-10T06:26:01.683Z,2116.00
2018-05-10T06:27:01.643Z,2128.00
2018-05-10T06:28:01.543Z,2296.00
2018-05-10T06:29:01.470Z,2312.00
2018-05-10T06:30:01.407Z,2292.00
2018-05-10T06:31:01.325Z,2336.00
2018-05-10T06:32:01.263Z,2316.00
2018-05-10T06:33:01.187Z,2360.00
2018-05-10T06:34:01.186Z,2356.00
2018-05-10T06:35:01.043Z,2392.00
2018-05-10T06:36:00.981Z,2484.00
2018-05-10T06:37:00.901Z,2628.00
2018-05-10T06:38:00.827Z,2708.00
2018-05-10T06:39:00.772Z,2728.00
2018-05-10T06:40:00.689Z,2764.00
2018-05-10T06:41:00.621Z,2764.00
2018-05-10T06:42:00.548Z,2776.00
2018-05-10T06:43:00.471Z,2864.00
2018-05-10T06:44:00.394Z,2992.00
2018-05-10T06:45:00.331Z,3056.00
2018-05-10T06:46:00.259Z,3152.00
2018-05-10T06:47:00.189Z,3248.00
2018-05-10T06:48:00.114Z,3408.00
2018-05-10T06:49:00.045Z,3648.00
2018-05-10T06:49:59.974Z,3704.00
2018-05-10T06:50:59.905Z,3724.00
2018-05-10T06:51:59.830Z,3884.00
2018-05-10T06:52:59.763Z,3928.00
2018-05-10T06:53:59.690Z,3944.00
2018-05-10T06:54:59.618Z,3936.00
2018-05-10T06:55:59.547Z,3952.00
2018-05-10T06:56:59.471Z,4048.00
2018-05-10T06:57:59.406Z,3936.00
2018-05-10T06:58:59.332Z,3892.00
2018-05-10T06:59:59.261Z,3940.00
2018-05-10T07:00:59.189Z,4028.00
2018-05-10T07:01:59.126Z,4176.00
2018-05-10T07:02:59.050Z,4144.00
2018-05-10T07:03:58.971Z,4464.00
2018-05-10T07:04:58.912Z,4476.00
2018-05-10T07:05:58.841Z,4564.00
2018-05-10T07:06:58.776Z,4708.00
2018-05-10T07:07:58.693Z,4692.00
2018-05-10T07:08:58.623Z,4672.00
2018-05-10T07:09:58.741Z,4724.00
2018-05-10T07:10:58.483Z,4624.00
2018-05-10T07:11:58.415Z,4508.00
2018-05-10T07:12:58.338Z,4520.00
2018-05-10T07:13:58.268Z,4352.00
2018-05-10T07:14:58.201Z,4480.00
2018-05-10T07:15:58.128Z,4588.00
2018-05-10T07:16:58.058Z,4528.00
2018-05-10T07:17:57.984Z,4660.00
2018-05-10T07:18:57.915Z,4784.00
2018-05-10T07:19:57.844Z,4544.00
2018-05-10T07:20:57.773Z,4832.00
2018-05-10T07:21:57.708Z,4924.00
2018-05-10T07:22:57.636Z,4908.00
2018-05-10T07:23:57.563Z,4852.00
2018-05-10T07:24:57.498Z,4752.00
2018-05-10T07:25:57.418Z,4812.00
2018-05-10T07:26:57.349Z,4676.00
2018-05-10T07:27:57.281Z,4480.00
2018-05-10T07:28:57.212Z,4324.00
2018-05-10T07:29:57.139Z,4404.00
2018-05-10T07:30:57.069Z,4000.00
2018-05-10T07:31:57.014Z,3692.00
2018-05-10T07:32:56.936Z,4036.00
2018-05-10T07:33:56.872Z,5188.00
2018-05-10T07:34:56.787Z,5928.00
2018-05-10T07:35:56.720Z,5804.00
2018-05-10T07:36:56.641Z,6220.00
2018-05-10T07:37:56.578Z,6192.00
2018-05-10T07:38:56.506Z,6168.00
2018-05-10T07:39:56.432Z,6544.00
2018-05-10T07:40:56.360Z,7244.00
2018-05-10T07:41:56.328Z,6716.00
2018-05-10T07:42:56.220Z,6216.00
2018-05-10T07:43:56.162Z,6512.00
2018-05-10T07:44:56.083Z,6564.00
2018-05-10T07:45:56.018Z,6920.00
2018-05-10T07:46:55.942Z,7748.00
2018-05-10T07:47:55.867Z,8140.00
2018-05-10T07:48:55.800Z,7968.00
2018-05-10T07:49:55.737Z,6928.00
2018-05-10T07:50:55.661Z,6048.00
2018-05-10T07:51:55.589Z,5888.00
2018-05-10T07:52:55.519Z,5956.00
2018-05-10T07:53:55.454Z,6052.00
2018-05-10T07:54:55.382Z,6020.00
2018-05-10T07:55:55.307Z,6052.00
2018-05-10T07:56:55.238Z,6008.00
2018-05-10T07:57:55.174Z,6000.00
2018-05-10T07:58:55.104Z,5992.00
2018-05-10T07:59:55.026Z,5688.00
2018-05-10T08:00:54.960Z,6260.00
2018-05-10T08:01:54.891Z,7452.00
2018-05-10T08:02:54.819Z,8072.00
2018-05-10T08:03:54.748Z,7088.00
2018-05-10T08:04:54.683Z,5064.00
2018-05-10T08:05:54.611Z,4560.00
2018-05-10T08:06:54.600Z,4524.00
2018-05-10T08:07:54.473Z,4444.00
2018-05-10T08:08:54.402Z,4728.00
2018-05-10T08:09:54.330Z,5448.00
2018-05-10T08:10:54.261Z,5692.00
2018-05-10T08:11:54.194Z,5624.00
2018-05-10T08:12:54.118Z,5244.00
2018-05-10T08:13:54.050Z,4944.00
2018-05-10T08:14:53.979Z,4572.00
2018-05-10T08:15:53.917Z,4124.00
2018-05-10T08:16:53.929Z,3648.00
2018-05-10T08:17:53.768Z,3360.00
2018-05-10T08:18:53.706Z,3364.00
2018-05-10T08:19:53.651Z,3516.00
2018-05-10T08:20:53.562Z,3772.00
2018-05-10T08:21:53.489Z,4024.00
2018-05-10T08:22:53.420Z,4288.00
2018-05-10T08:23:53.352Z,4616.00
2018-05-10T08:24:53.283Z,4756.00
2018-05-10T08:25:53.209Z,4580.00
2018-05-10T08:26:53.138Z,4336.00
2018-05-10T08:27:53.082Z,4220.00
2018-05-10T08:28:53.004Z,4144.00
2018-05-10T08:29:52.932Z,3996.00
2018-05-10T08:30:52.884Z,3820.00
2018-05-10T08:31:52.792Z,3524.00
2018-05-10T08:32:52.722Z,3192.00
2018-05-10T08:33:52.654Z,2948.00
2018-05-10T08:34:52.582Z,2796.00
2018-05-10T08:35:52.516Z,2836.00
2018-05-10T08:36:52.481Z,2884.00
2018-05-10T08:37:52.368Z,2968.00
2018-05-10T08:38:52.332Z,3072.00
2018-05-10T08:39:52.228Z,3108.00
2018-05-10T08:40:52.160Z,3028.00
2018-05-10T08:41:52.093Z,3028.00
2018-05-10T08:42:52.023Z,2980.00
2018-05-10T08:43:51.948Z,2964.00
2018-05-10T08:44:51.881Z,3004.00
2018-05-10T08:45:51.811Z,3112.00
2018-05-10T08:46:51.746Z,3352.00
2018-05-10T08:47:51.674Z,3692.00
2018-05-10T08:48:51.606Z,4216.00
2018-05-10T08:49:51.529Z,4896.00
2018-05-10T08:50:51.469Z,5548.00
2018-05-10T08:51:51.476Z,6004.00
2018-05-10T08:52:51.320Z,6264.00
2018-05-10T08:53:51.249Z,6436.00
2018-05-10T08:54:51.180Z,6564.00
2018-05-10T08:55:51.107Z,6724.00
2018-05-10T08:56:51.041Z,6644.00
2018-05-10T08:57:50.971Z,6284.00
2018-05-10T08:58:50.899Z,5828.00
2018-05-10T08:59:50.846Z,5332.00
2018-05-10T09:00:50.761Z,4844.00
2018-05-10T09:01:50.691Z,4536.00
2018-05-10T09:02:50.623Z,4428.00
2018-05-10T09:03:50.552Z,4300.00
2018-05-10T09:04:50.486Z,4196.00
2018-05-10T09:05:50.460Z,4096.00
2018-05-10T09:06:50.373Z,3996.00
2018-05-10T09:07:50.270Z,3936.00
2018-05-10T09:08:50.210Z,3856.00
2018-05-10T09:09:50.131Z,3768.00
2018-05-10T09:10:50.064Z,3684.00
2018-05-10T09:11:49.990Z,3668.00
2018-05-10T09:12:49.922Z,3828.00
2018-05-10T09:13:49.851Z,3944.00
2018-05-10T09:14:49.789Z,3912.00
2018-05-10T09:15:49.718Z,3980.00
2018-05-10T09:16:49.642Z,3904.00
2018-05-10T09:17:49.573Z,3904.00
2018-05-10T09:18:49.505Z,4072.00
2018-05-10T09:19:49.437Z,4284.00
2018-05-10T09:20:49.368Z,4504.00
2018-05-10T09:21:49.293Z,4848.00
2018-05-10T09:22:49.225Z,5020.00
2018-05-10T09:23:49.157Z,5372.00
2018-05-10T09:24:49.089Z,5708.00
2018-05-10T09:25:49.014Z,6024.00
2018-05-10T09:26:48.945Z,6240.00
2018-05-10T09:27:48.898Z,6396.00
2018-05-10T09:28:48.813Z,6372.00
2018-05-10T09:29:48.736Z,6260.00
2018-05-10T09:30:48.667Z,6056.00
2018-05-10T09:31:48.594Z,5916.00
2018-05-10T09:32:48.528Z,5548.00
2018-05-10T09:33:48.456Z,5084.00
2018-05-10T09:34:48.395Z,4700.00
2018-05-10T09:35:48.319Z,4300.00
2018-05-10T09:36:48.247Z,4256.00
2018-05-10T09:37:48.179Z,4260.00
2018-05-10T09:38:48.109Z,4332.00
2018-05-10T09:39:48.034Z,4440.00
2018-05-10T09:40:47.967Z,4456.00
2018-05-10T09:41:47.902Z,4380.00
2018-05-10T09:42:47.827Z,4140.00
2018-05-10T09:43:47.754Z,3916.00
2018-05-10T09:44:47.756Z,3724.00
2018-05-10T09:45:47.618Z,3576.00
2018-05-10T09:46:47.546Z,3708.00
2018-05-10T09:47:47.494Z,3848.00
2018-05-10T09:48:47.406Z,4148.00
2018-05-10T09:49:47.344Z,4376.00
2018-05-10T09:50:47.268Z,4608.00
2018-05-10T09:51:47.198Z,4656.00
2018-05-10T09:52:47.207Z,4844.00
2018-05-10T09:53:47.059Z,4800.00
2018-05-10T09:54:46.987Z,4936.00
2018-05-10T09:55:46.924Z,4952.00
2018-05-10T09:56:46.850Z,5068.00
2018-05-10T09:57:46.781Z,5240.00
2018-05-10T09:58:46.708Z,5324.00
2018-05-10T09:59:46.643Z,5432.00
2018-05-10T10:00:46.568Z,5400.00
2018-05-10T10:01:46.495Z,5436.00
2018-05-10T10:02:46.433Z,5588.00
2018-05-10T10:03:46.359Z,5276.00
2018-05-10T10:04:46.287Z,5100.00
2018-05-10T10:05:46.250Z,4948.00
2018-05-10T10:06:46.156Z,4712.00
2018-05-10T10:07:46.077Z,4356.00
2018-05-10T10:08:46.004Z,4080.00
2018-05-10T10:09:45.944Z,4052.00
2018-05-10T10:10:45.863Z,4008.00
2018-05-10T10:11:45.862Z,4088.00
2018-05-10T10:12:45.723Z,4160.00
2018-05-10T10:13:45.657Z,4260.00
2018-05-10T10:14:45.583Z,4288.00
2018-05-10T10:15:45.549Z,4244.00
2018-05-10T10:16:45.440Z,4288.00
2018-05-10T10:17:45.375Z,4288.00
2018-05-10T10:18:45.299Z,4316.00
2018-05-10T10:19:45.227Z,4304.00
2018-05-10T10:20:45.162Z,4232.00
2018-05-10T10:21:45.089Z,4276.00
2018-05-10T10:22:45.021Z,4324.00
2018-05-10T10:23:44.948Z,4428.00
2018-05-10T10:24:44.876Z,4544.00
2018-05-10T10:25:44.808Z,4596.00
2018-05-10T10:26:44.738Z,4524.00
2018-05-10T10:27:44.664Z,4504.00
2018-05-10T10:28:44.596Z,4444.00
2018-05-10T10:29:44.543Z,4504.00
2018-05-10T10:30:44.454Z,4512.00
2018-05-10T10:31:44.384Z,4504.00
2018-05-10T10:32:44.317Z,4600.00
2018-05-10T10:33:44.243Z,4508.00
2018-05-10T10:34:44.175Z,4388.00
2018-05-10T10:35:44.107Z,4340.00
2018-05-10T10:36:44.033Z,4192.00
2018-05-10T10:37:43.956Z,4056.00
2018-05-10T10:38:43.903Z,3892.00
2018-05-10T10:39:43.818Z,3928.00
2018-05-10T10:40:43.753Z,3968.00
2018-05-10T10:41:43.679Z,4012.00
2018-05-10T10:42:43.608Z,4076.00
2018-05-10T10:43:43.558Z,4208.00
2018-05-10T10:44:43.480Z,4320.00
2018-05-10T10:45:43.393Z,4360.00
2018-05-10T10:46:43.334Z,4384.00
2018-05-10T10:47:43.258Z,4280.00
2018-05-10T10:48:43.182Z,4020.00
2018-05-10T10:49:43.121Z,3728.00
2018-05-10T10:50:43.043Z,3304.00
2018-05-10T10:51:42.969Z,3012.00
2018-05-10T10:52:42.899Z,2748.00
2018-05-10T10:53:42.828Z,2592.00
2018-05-10T10:54:42.759Z,2624.00
2018-05-10T10:55:42.689Z,2652.00
2018-05-10T10:56:42.615Z,2648.00
2018-05-10T10:57:42.545Z,2704.00
2018-05-10T10:58:42.479Z,2948.00
2018-05-10T10:59:42.403Z,3224.00
2018-05-10T11:00:42.332Z,3528.00
2018-05-10T11:01:42.333Z,3816.00
2018-05-10T11:02:42.189Z,4084.00
2018-05-10T11:03:42.121Z,4496.00
2018-05-10T11:04:42.048Z,4756.00
2018-05-10T11:05:41.980Z,4896.00
2018-05-10T11:06:41.906Z,4972.00
2018-05-10T11:07:41.838Z,4876.00
2018-05-10T11:08:41.766Z,4912.00
2018-05-10T11:09:41.694Z,5140.00
2018-05-10T11:10:41.626Z,5500.00
2018-05-10T11:11:41.553Z,5936.00
2018-05-10T11:12:41.483Z,6424.00
2018-05-10T11:13:41.409Z,6796.00
2018-05-10T11:14:41.340Z,7076.00
2018-05-10T11:15:41.270Z,7476.00
2018-05-10T11:16:41.197Z,7868.00
2018-05-10T11:17:41.132Z,8804.00
2018-05-10T11:18:41.056Z,9880.00
2018-05-10T11:19:40.983Z,11328.00
2018-05-10T11:20:40.913Z,13900.00
2018-05-10T11:21:40.846Z,12692.00
2018-05-10T11:22:40.876Z,12368.00
2018-05-10T11:23:40.704Z,12348.00
2018-05-10T11:24:40.632Z,12884.00
2018-05-10T11:25:40.559Z,13148.00
2018-05-10T11:26:40.494Z,13076.00
2018-05-10T11:27:40.418Z,12724.00
2018-05-10T11:28:40.348Z,12328.00
2018-05-10T11:29:40.280Z,12044.00
2018-05-10T11:30:40.209Z,12268.00
2018-05-10T11:31:40.138Z,13000.00
2018-05-10T11:32:40.067Z,13264.00
2018-05-10T11:33:39.997Z,13840.00
2018-05-10T11:34:39.927Z,14384.00
2018-05-10T11:35:39.858Z,14800.00
2018-05-10T11:36:39.788Z,15468.00
2018-05-10T11:37:39.722Z,15860.00
2018-05-10T11:38:39.654Z,15384.00
2018-05-10T11:39:39.577Z,15332.00
2018-05-10T11:40:39.507Z,14364.00
2018-05-10T11:41:39.439Z,13516.00
2018-05-10T11:42:39.373Z,12776.00
2018-05-10T11:43:39.298Z,11832.00
2018-05-10T11:44:39.236Z,10164.00
2018-05-10T11:45:39.162Z,8940.00
2018-05-10T11:46:39.091Z,8204.00
2018-05-10T11:47:39.040Z,7416.00
2018-05-10T11:48:38.968Z,6980.00
2018-05-10T11:49:38.881Z,6552.00
2018-05-10T11:50:38.816Z,6260.00
2018-05-10T11:51:38.746Z,5680.00
2018-05-10T11:52:38.672Z,5564.00
2018-05-10T11:53:38.604Z,5720.00
2018-05-10T11:54:38.533Z,5784.00
2018-05-10T11:55:38.462Z,5208.00
2018-05-10T11:56:38.409Z,4172.00
2018-05-10T11:57:38.325Z,3280.00
2018-05-10T11:58:38.256Z,3000.00
2018-05-10T11:59:38.206Z,3056.00
2018-05-10T12:00:38.112Z,3340.00
2018-05-10T12:01:38.044Z,3372.00
2018-05-10T12:02:37.983Z,3536.00
2018-05-10T12:03:37.907Z,3880.00
2018-05-10T12:04:37.834Z,4312.00
2018-05-10T12:05:37.792Z,4848.00
2018-05-10T12:06:37.696Z,4832.00
2018-05-10T12:07:37.624Z,4428.00
2018-05-10T12:08:37.552Z,3836.00
2018-05-10T12:09:37.485Z,3980.00
2018-05-10T12:10:37.413Z,4140.00
2018-05-10T12:11:37.342Z,3840.00
2018-05-10T12:12:37.352Z,3528.00
2018-05-10T12:13:37.240Z,4164.00
2018-05-10T12:14:37.131Z,4908.00
2018-05-10T12:15:37.057Z,5928.00
2018-05-10T12:16:36.983Z,6144.00
2018-05-10T12:17:36.917Z,5460.00
2018-05-10T12:18:36.840Z,5156.00
2018-05-10T12:19:36.776Z,5324.00
2018-05-10T12:20:36.701Z,5760.00
2018-05-10T12:21:36.635Z,6432.00
2018-05-10T12:22:36.569Z,6984.00
2018-05-10T12:23:36.497Z,7056.00
2018-05-10T12:24:36.423Z,6968.00
2018-05-10T12:25:36.439Z,6936.00
2018-05-10T12:26:36.279Z,6776.00
2018-05-10T12:27:36.208Z,6560.00
2018-05-10T12:28:36.137Z,6396.00